Time;durP1;ratioP1;P1;durP2;ratioP2;P2;SDS_P1;SDS_P2;PMS_P1;PMS_P2;Temp;Humidity;BMP_temperature;BMP_pressure;BME280_temperature;BME280_humidity;BME280_pressure;Samples;Min_cycle;Max_cycle;Signal;HPM_P1;HPM_P2
2021/06/28 00:01:17;;;;;;;7.90;4.88;;;18.20;99.90;;;;;;5105112;28;20114;-69
2021/06/28 00:03:44;;;;;;;7.40;5.25;;;18.20;99.90;;;;;;5104861;28;20044;-72
2021/06/28 00:06:12;;;;;;;7.15;4.88;;;18.20;99.90;;;;;;5104197;28;20047;-71
2021/06/28 00:08:37;;;;;;;9.30;5.20;;;18.20;99.90;;;;;;5104708;28;20126;-70
2021/06/28 00:11:07;;;;;;;;;;;18.30;99.90;;;;;;5105524;28;20051;-71
2021/06/28 00:13:33;;;;;;;10.77;5.20;;;18.30;99.90;;;;;;5104095;28;19915;-70
2021/06/28 00:15:58;;;;;;;5.65;4.97;;;18.30;99.90;;;;;;5103815;28;20039;-71
2021/06/28 00:18:24;;;;;;;;;;;18.20;99.90;;;;;;5094908;28;20510;-69
2021/06/28 00:20:50;;;;;;;6.55;4.95;;;18.20;99.90;;;;;;5091111;28;19919;-70
2021/06/28 00:23:16;;;;;;;11.65;5.57;;;18.20;99.90;;;;;;5089850;28;20407;-71
2021/06/28 00:25:41;;;;;;;7.40;5.32;;;18.10;99.90;;;;;;5090764;28;20048;-69
2021/06/28 00:28:07;;;;;;;;;;;18.00;99.90;;;;;;5089296;28;20047;-69
2021/06/28 00:30:41;;;;;;;7.63;5.65;;;18.00;99.90;;;;;;5089042;28;19923;-69
2021/06/28 00:33:08;;;;;;;10.68;6.47;;;18.00;99.90;;;;;;5090452;28;20438;-70
2021/06/28 00:35:35;;;;;;;7.63;5.90;;;17.90;99.90;;;;;;5090409;28;20098;-70
2021/06/28 00:38:00;;;;;;;8.40;6.28;;;17.90;99.90;;;;;;5090688;28;20552;-69
2021/06/28 00:40:26;;;;;;;;;;;17.80;99.90;;;;;;5089890;28;20119;-70
2021/06/28 00:42:52;;;;;;;8.95;6.82;;;17.70;99.90;;;;;;5090978;28;20378;-70
2021/06/28 00:45:26;;;;;;;9.10;6.63;;;17.70;99.90;;;;;;5089833;28;20098;-70
2021/06/28 00:47:59;;;;;;;10.82;7.28;;;17.60;99.90;;;;;;5090819;28;20441;-71
2021/06/28 00:50:28;;;;;;;13.98;7.68;;;17.60;99.90;;;;;;5091475;28;20070;-70
2021/06/28 00:52:57;;;;;;;12.52;7.60;;;17.60;99.90;;;;;;5089930;28;20044;-69
2021/06/28 00:55:24;;;;;;;13.27;7.60;;;17.60;99.90;;;;;;5090674;28;20396;-69
2021/06/28 00:57:50;;;;;;;10.23;7.72;;;17.50;99.90;;;;;;5090170;28;20040;-70
2021/06/28 01:00:15;;;;;;;;;;;17.50;99.90;;;;;;5091273;28;20036;-69
2021/06/28 01:02:41;;;;;;;10.40;8.05;;;17.50;99.90;;;;;;5089759;28;20299;-70
2021/06/28 01:05:08;;;;;;;;;;;17.50;99.90;;;;;;5088919;28;20056;-72
2021/06/28 01:07:34;;;;;;;9.98;8.63;;;17.30;99.90;;;;;;5083199;28;19931;-69
2021/06/28 01:10:00;;;;;;;;;;;17.30;99.90;;;;;;5088186;28;20040;-69
2021/06/28 01:12:25;;;;;;;14.77;7.63;;;17.30;99.90;;;;;;5090287;28;20325;-69
2021/06/28 01:14:51;;;;;;;;;;;17.30;99.90;;;;;;5089997;28;20040;-70
2021/06/28 01:17:16;;;;;;;8.45;7.47;;;17.30;99.90;;;;;;5089432;28;19927;-70
2021/06/28 01:19:45;;;;;;;;;;;17.30;99.90;;;;;;5090715;28;20074;-71
2021/06/28 01:22:15;;;;;;;10.40;7.43;;;17.30;99.90;;;;;;5085460;28;19916;-70
2021/06/28 01:24:41;;;;;;;10.15;7.82;;;17.30;99.90;;;;;;5089619;28;20036;-68
2021/06/28 01:27:07;;;;;;;;;;;17.30;99.90;;;;;;5090097;28;20048;-68
2021/06/28 01:29:33;;;;;;;10.07;8.07;;;17.30;99.90;;;;;;5085995;28;19939;-70
2021/06/28 01:31:58;;;;;;;;;;;17.20;99.90;;;;;;5088559;28;20496;-70
2021/06/28 01:34:24;;;;;;;11.30;8.30;;;17.30;99.90;;;;;;5089177;28;19966;-69
2021/06/28 01:36:49;;;;;;;;;;;17.20;99.90;;;;;;5090187;28;20095;-69
2021/06/28 01:39:15;;;;;;;11.07;8.18;;;17.20;99.90;;;;;;5089876;28;19916;-68
2021/06/28 01:41:40;;;;;;;;;;;17.20;99.90;;;;;;5089137;28;20051;-68
2021/06/28 01:44:06;;;;;;;15.35;9.15;;;17.10;99.90;;;;;;5089991;28;19927;-69
2021/06/28 01:46:31;;;;;;;;;;;17.20;99.90;;;;;;5089195;28;20123;-69
2021/06/28 01:48:57;;;;;;;14.43;7.90;;;17.10;99.90;;;;;;5089023;28;20010;-68
2021/06/28 01:51:22;;;;;;;;;;;17.10;99.90;;;;;;5089321;28;20539;-69
2021/06/28 01:53:48;;;;;;;12.15;7.93;;;17.10;99.90;;;;;;5090095;28;19916;-69
2021/06/28 01:56:14;;;;;;;12.68;8.45;;;17.10;99.90;;;;;;5083774;28;20124;-68
2021/06/28 01:58:39;;;;;;;;;;;17.10;99.90;;;;;;5072905;28;20032;-69
2021/06/28 02:01:06;;;;;;;14.85;9.45;;;17.20;99.90;;;;;;5087500;28;19927;-68
2021/06/28 02:03:38;;;;;;;18.15;9.70;;;17.20;99.90;;;;;;5088434;28;20044;-70
2021/06/28 02:06:04;;;;;;;11.18;8.75;;;17.10;99.90;;;;;;5089071;28;20118;-69
2021/06/28 02:08:33;;;;;;;13.98;9.35;;;17.10;99.90;;;;;;5089136;28;20036;-70
2021/06/28 02:11:02;;;;;;;14.45;8.50;;;17.10;99.90;;;;;;5088464;28;20141;-69
2021/06/28 02:13:31;;;;;;;14.27;8.98;;;17.10;99.90;;;;;;5088574;28;20044;-69
2021/06/28 02:15:57;;;;;;;11.50;8.63;;;17.10;99.90;;;;;;5088140;28;20541;-69
2021/06/28 02:18:24;;;;;;;;;;;17.10;99.90;;;;;;5089611;28;20036;-68
2021/06/28 02:20:50;;;;;;;14.38;8.30;;;17.10;99.90;;;;;;5083276;28;20010;-70
2021/06/28 02:23:22;;;;;;;17.58;8.50;;;17.10;99.90;;;;;;5088310;28;20044;-70
2021/06/28 02:26:02;;;;;;;10.05;8.43;;;17.10;99.90;;;;;;5088814;28;20044;-69
2021/06/28 02:28:30;;;;;;;11.75;8.02;;;17.10;99.90;;;;;;5086976;28;20051;-69
2021/06/28 02:30:58;;;;;;;11.30;8.30;;;17.10;99.90;;;;;;5088948;28;20396;-70
2021/06/28 02:33:24;;;;;;;13.05;8.68;;;17.10;99.90;;;;;;5087945;28;20046;-70
2021/06/28 02:35:51;;;;;;;15.73;8.75;;;17.00;99.90;;;;;;5088495;28;20051;-69
2021/06/28 02:38:17;;;;;;;10.75;8.35;;;17.00;99.90;;;;;;5089227;28;20036;-69
2021/06/28 02:40:43;;;;;;;10.07;7.85;;;17.00;99.90;;;;;;5073141;28;20074;-70
2021/06/28 02:43:08;;;;;;;;;;;17.00;99.90;;;;;;5079178;28;20036;-69
2021/06/28 02:45:34;;;;;;;11.15;7.90;;;16.90;99.90;;;;;;5088088;28;19924;-70
2021/06/28 02:48:00;;;;;;;;;;;17.00;99.90;;;;;;5088339;28;20048;-70
2021/06/28 02:50:25;;;;;;;10.48;7.97;;;17.00;99.90;;;;;;5088897;28;19916;-70
2021/06/28 02:52:51;;;;;;;10.05;7.53;;;16.90;99.90;;;;;;5087966;28;20408;-69
2021/06/28 02:55:17;;;;;;;;;;;16.90;99.90;;;;;;5089352;28;20562;-68
2021/06/28 02:57:42;;;;;;;11.48;8.18;;;16.80;99.90;;;;;;5071509;28;19988;-68
2021/06/28 03:00:14;;;;;;;14.00;8.23;;;16.80;99.90;;;;;;5086859;28;20044;-68
2021/06/28 03:02:41;;;;;;;11.38;8.25;;;16.80;99.90;;;;;;5087005;28;20051;-69
2021/06/28 03:05:08;;;;;;;12.70;8.10;;;16.70;99.90;;;;;;5087840;28;20763;-69
2021/06/28 03:07:34;;;;;;;11.38;7.85;;;16.70;99.90;;;;;;5087261;28;20044;-70
2021/06/28 03:10:00;;;;;;;10.35;8.57;;;16.70;99.90;;;;;;5088511;28;20032;-68
2021/06/28 03:12:26;;;;;;;9.77;8.15;;;16.70;99.90;;;;;;5088220;28;20044;-69
2021/06/28 03:14:51;;;;;;;;;;;16.70;99.90;;;;;;5085253;28;20061;-69
2021/06/28 03:17:17;;;;;;;10.43;7.82;;;16.70;99.90;;;;;;5087122;28;20447;-69
2021/06/28 03:19:42;;;;;;;;;;;16.60;99.90;;;;;;5089397;28;20036;-70
2021/06/28 03:22:08;;;;;;;9.15;7.65;;;16.60;99.90;;;;;;5087837;28;20311;-66
2021/06/28 03:24:34;;;;;;;;;;;16.70;99.90;;;;;;5088189;28;20125;-68
2021/06/28 03:27:00;;;;;;;12.43;7.13;;;16.60;99.90;;;;;;5087697;28;20402;-68
2021/06/28 03:29:25;;;;;;;;;;;16.60;99.90;;;;;;5086070;28;20036;-68
2021/06/28 03:31:51;;;;;;;10.70;7.90;;;16.60;99.90;;;;;;5086230;28;19920;-68
2021/06/28 03:34:16;;;;;;;10.27;8.07;;;16.60;99.90;;;;;;5087438;28;20090;-68
2021/06/28 03:36:42;;;;;;;;;;;16.50;99.90;;;;;;5088433;28;20627;-68
2021/06/28 03:39:08;;;;;;;10.48;7.90;;;16.50;99.90;;;;;;5088250;28;20496;-68
2021/06/28 03:41:34;;;;;;;;;;;16.60;99.90;;;;;;5088265;28;20044;-67
2021/06/28 03:44:00;;;;;;;9.15;7.78;;;16.50;99.90;;;;;;5086526;28;19938;-68
2021/06/28 03:46:26;;;;;;;17.05;8.02;;;16.50;99.90;;;;;;5087132;28;20040;-67
2021/06/28 03:48:51;;;;;;;;;;;16.50;99.90;;;;;;5089020;28;20036;-69
2021/06/28 03:51:17;;;;;;;9.13;7.15;;;16.60;99.90;;;;;;5087786;28;19916;-69
2021/06/28 03:53:42;;;;;;;;;;;16.60;99.90;;;;;;5091368;28;20044;-70
2021/06/28 03:56:08;;;;;;;10.35;7.72;;;16.40;99.90;;;;;;5091596;28;20011;-68
2021/06/28 03:58:35;;;;;;;;;;;16.40;99.90;;;;;;5089111;28;20848;-68
2021/06/28 04:01:01;;;;;;;9.00;7.47;;;16.30;99.90;;;;;;5089806;28;19916;-68
2021/06/28 04:03:29;;;;;;;13.13;8.88;;;16.40;99.90;;;;;;5092968;28;20070;-68
2021/06/28 04:05:55;;;;;;;12.32;7.28;;;16.40;99.90;;;;;;5091463;28;20640;-69
2021/06/28 04:08:21;;;;;;;9.85;7.60;;;16.50;99.90;;;;;;5092005;28;20065;-68
2021/06/28 04:10:46;;;;;;;;;;;16.50;99.90;;;;;;5092034;28;20036;-68
2021/06/28 04:13:12;;;;;;;9.05;6.85;;;16.60;99.90;;;;;;5091421;28;20286;-68
2021/06/28 04:15:37;;;;;;;;;;;16.70;99.90;;;;;;5090362;28;20047;-68
2021/06/28 04:18:03;;;;;;;7.28;6.13;;;17.00;99.90;;;;;;5091823;28;20280;-68
2021/06/28 04:20:29;;;;;;;8.32;6.22;;;17.20;99.90;;;;;;5091379;28;20076;-69
2021/06/28 04:22:54;;;;;;;;;;;17.40;99.90;;;;;;5091574;28;20117;-69
2021/06/28 04:25:22;;;;;;;8.32;6.85;;;17.50;99.90;;;;;;5090504;28;20346;-69
2021/06/28 04:27:48;;;;;;;10.60;7.43;;;17.50;99.90;;;;;;5087473;28;20088;-69
2021/06/28 04:30:16;;;;;;;9.50;6.93;;;17.30;99.90;;;;;;5090064;28;20067;-70
2021/06/28 04:32:42;;;;;;;9.50;7.55;;;17.30;99.90;;;;;;5090745;28;20131;-71
2021/06/28 04:35:11;;;;;;;10.88;8.38;;;17.20;99.90;;;;;;5090771;28;20835;-69
2021/06/28 04:37:38;;;;;;;8.98;7.13;;;17.30;99.90;;;;;;5090607;28;20063;-70
2021/06/28 04:40:07;;;;;;;9.55;7.10;;;17.90;99.90;;;;;;5090552;28;20051;-70
2021/06/28 04:42:32;;;;;;;7.45;6.13;;;17.90;99.90;;;;;;5090871;28;20047;-70
2021/06/28 04:44:58;;;;;;;;;;;17.80;99.90;;;;;;5090766;28;20040;-70
2021/06/28 04:47:23;;;;;;;8.43;6.70;;;17.90;99.90;;;;;;5089312;28;20157;-70
2021/06/28 04:49:49;;;;;;;;;;;17.90;99.90;;;;;;5092020;28;20093;-69
2021/06/28 04:52:15;;;;;;;9.75;6.55;;;17.90;99.90;;;;;;5091240;28;20016;-70
2021/06/28 04:54:40;;;;;;;;;;;18.00;99.90;;;;;;5090935;28;20589;-70
2021/06/28 04:57:06;;;;;;;11.35;7.00;;;17.90;99.90;;;;;;5088842;28;19923;-70
2021/06/28 04:59:31;;;;;;;;;;;17.90;99.90;;;;;;5088383;28;20512;-70
2021/06/28 05:01:57;;;;;;;8.75;7.15;;;17.80;99.90;;;;;;5089418;28;20037;-70
2021/06/28 05:04:22;;;;;;;;;;;17.80;99.90;;;;;;5090196;28;20059;-69
2021/06/28 05:06:48;;;;;;;9.30;6.63;;;17.80;99.90;;;;;;5090260;28;20313;-69
2021/06/28 05:09:15;;;;;;;8.48;7.28;;;17.70;99.90;;;;;;5088967;28;20029;-70
2021/06/28 05:11:41;;;;;;;8.00;7.07;;;17.80;99.90;;;;;;5090142;28;20178;-70
2021/06/28 05:14:07;;;;;;;9.38;7.70;;;17.80;99.90;;;;;;5089879;28;20039;-70
2021/06/28 05:16:32;;;;;;;;;;;17.90;99.90;;;;;;5091067;28;20492;-70
2021/06/28 05:18:58;;;;;;;9.60;7.35;;;18.00;99.90;;;;;;5090187;28;19919;-70
2021/06/28 05:21:24;;;;;;;7.82;6.53;;;17.90;99.90;;;;;;5089235;28;20043;-69
2021/06/28 05:23:49;;;;;;;8.10;6.80;;;17.90;99.90;;;;;;5091457;28;20519;-69
2021/06/28 05:26:15;;;;;;;9.48;7.25;;;17.90;99.90;;;;;;5091173;28;20121;-69
2021/06/28 05:28:41;;;;;;;13.05;6.97;;;17.90;99.90;;;;;;5088329;28;20143;-70
2021/06/28 05:31:06;;;;;;;;;;;18.00;99.90;;;;;;5089747;28;20038;-69
2021/06/28 05:33:32;;;;;;;9.45;6.45;;;18.20;99.90;;;;;;5089461;28;20390;-69
2021/06/28 05:35:57;;;;;;;7.65;6.50;;;18.40;99.90;;;;;;5090142;28;20100;-70
2021/06/28 05:38:23;;;;;;;;;;;18.80;99.90;;;;;;5089493;28;20477;-70
2021/06/28 05:40:49;;;;;;;8.90;7.68;;;18.70;99.90;;;;;;5088439;28;20326;-69
2021/06/28 05:43:14;;;;;;;9.27;7.28;;;18.50;99.90;;;;;;5090850;28;20135;-69
2021/06/28 05:45:40;;;;;;;;;;;18.40;99.90;;;;;;5089348;28;20131;-70
2021/06/28 05:48:05;;;;;;;8.65;7.05;;;18.30;99.90;;;;;;5089937;28;19920;-70
2021/06/28 05:50:31;;;;;;;11.35;7.38;;;18.40;99.90;;;;;;5090533;28;20782;-70
2021/06/28 05:52:58;;;;;;;10.90;7.68;;;18.40;99.90;;;;;;5089600;28;20040;-70
2021/06/28 05:55:24;;;;;;;9.52;7.05;;;18.40;99.90;;;;;;5089884;28;20044;-70
2021/06/28 05:57:51;;;;;;;;;;;18.40;99.90;;;;;;5073798;28;20067;-70
2021/06/28 06:00:18;;;;;;;7.75;6.47;;;18.50;99.90;;;;;;5081822;28;19977;-70
2021/06/28 06:02:43;;;;;;;9.43;6.88;;;18.70;99.90;;;;;;5087656;28;20127;-71
2021/06/28 06:05:09;;;;;;;;;;;18.90;99.90;;;;;;5090019;28;20120;-70
2021/06/28 06:07:38;;;;;;;8.02;6.93;;;18.90;99.90;;;;;;5088110;28;19924;-70
2021/06/28 06:10:05;;;;;;;9.55;8.32;;;18.80;99.90;;;;;;5089415;28;20033;-70
2021/06/28 06:12:31;;;;;;;8.02;6.63;;;19.00;99.90;;;;;;5087648;28;20546;-72
2021/06/28 06:14:57;;;;;;;;;;;19.00;99.90;;;;;;5089511;28;20036;-70
2021/06/28 06:17:23;;;;;;;9.73;6.32;;;19.00;99.90;;;;;;5088861;28;19916;-69
2021/06/28 06:19:48;;;;;;;7.38;6.03;;;19.30;99.90;;;;;;5088786;28;20043;-69
2021/06/28 06:22:14;;;;;;;7.70;5.63;;;20.10;99.90;;;;;;5089206;28;20119;-68
2021/06/28 06:24:40;;;;;;;;;;;20.50;99.90;;;;;;5089877;28;20162;-68
2021/06/28 06:27:07;;;;;;;6.60;5.90;;;20.40;99.90;;;;;;5084890;28;20422;-69
2021/06/28 06:29:34;;;;;;;7.72;6.35;;;20.20;99.90;;;;;;5080289;28;20043;-68
2021/06/28 06:31:59;;;;;;;7.72;6.53;;;20.10;99.90;;;;;;5079664;28;20506;-69
2021/06/28 06:34:25;;;;;;;;;;;20.10;99.90;;;;;;5084780;28;20044;-70
2021/06/28 06:36:52;;;;;;;7.97;6.32;;;20.40;99.90;;;;;;5078406;28;19926;-69
2021/06/28 06:39:18;;;;;;;8.40;5.78;;;20.50;99.90;;;;;;5080558;28;20062;-69
2021/06/28 06:41:43;;;;;;;6.97;6.28;;;20.70;99.90;;;;;;5075247;28;20043;-68
2021/06/28 06:44:09;;;;;;;;;;;20.60;99.90;;;;;;5077042;28;20036;-67
2021/06/28 06:46:35;;;;;;;10.43;6.70;;;20.40;99.90;;;;;;5074669;28;19924;-68
2021/06/28 06:49:01;;;;;;;8.18;6.28;;;20.40;99.90;;;;;;5076992;28;20036;-69
2021/06/28 06:51:27;;;;;;;;;;;20.40;99.90;;;;;;5077403;28;20081;-68
2021/06/28 06:53:52;;;;;;;8.13;6.55;;;20.40;99.90;;;;;;5077083;28;19916;-70
2021/06/28 06:56:18;;;;;;;6.75;5.90;;;20.60;99.90;;;;;;5077863;28;20426;-68
2021/06/28 06:58:44;;;;;;;10.02;5.65;;;20.90;99.90;;;;;;5077571;28;20028;-69
2021/06/28 07:01:13;;;;;;;13.57;6.60;;;20.90;99.90;;;;;;5081977;28;20085;-68
2021/06/28 07:03:39;;;;;;;7.55;5.72;;;20.90;99.90;;;;;;5086367;28;20496;-69
2021/06/28 07:06:04;;;;;;;;;;;20.90;99.90;;;;;;5089252;28;20127;-66
2021/06/28 07:08:30;;;;;;;9.60;6.35;;;20.90;99.90;;;;;;5091066;28;19916;-70
2021/06/28 07:10:56;;;;;;;19.27;7.25;;;20.70;99.90;;;;;;5083424;28;20556;-68
2021/06/28 07:13:22;;;;;;;7.13;6.40;;;20.60;99.90;;;;;;5086815;28;20458;-68
2021/06/28 07:15:48;;;;;;;7.65;6.75;;;20.50;99.90;;;;;;5091099;28;20040;-69
2021/06/28 07:18:13;;;;;;;7.18;6.10;;;20.60;99.90;;;;;;5087999;23;20066;-70
2021/06/28 07:20:39;;;;;;;8.50;5.90;;;20.70;99.90;;;;;;5066116;28;20044;-70
2021/06/28 07:23:05;;;;;;;;;;;20.80;99.90;;;;;;5063182;28;20044;-69
2021/06/28 07:25:31;;;;;;;6.03;5.40;;;20.90;99.90;;;;;;5060981;28;19920;-66
2021/06/28 07:27:57;;;;;;;6.05;5.45;;;21.10;99.90;;;;;;5047849;28;20040;-72
2021/06/28 07:30:24;;;;;;;13.32;6.22;;;21.10;99.90;;;;;;5063698;28;20099;-68
2021/06/28 07:32:52;;;;;;;7.78;5.97;;;21.30;99.90;;;;;;5065388;28;20419;-69
2021/06/28 07:35:18;;;;;;;7.38;5.95;;;21.30;99.90;;;;;;5062669;28;20669;-69
2021/06/28 07:37:44;;;;;;;7.75;5.38;;;21.40;99.90;;;;;;5071894;28;20040;-68
2021/06/28 07:40:13;;;;;;;9.55;6.05;;;21.40;99.90;;;;;;5072643;28;20036;-69
2021/06/28 07:42:39;;;;;;;6.53;5.78;;;21.40;99.90;;;;;;5071417;28;20051;-68
2021/06/28 07:45:06;;;;;;;6.97;6.25;;;21.40;99.90;;;;;;5072047;28;20047;-68
2021/06/28 07:47:34;;;;;;;7.05;5.68;;;21.30;99.90;;;;;;5051323;28;20041;-69
2021/06/28 07:50:00;;;;;;;6.53;5.82;;;21.40;99.90;;;;;;5051697;28;20041;-68
2021/06/28 07:52:27;;;;;;;7.32;6.20;;;21.40;99.90;;;;;;5051598;28;20041;-69
2021/06/28 07:54:53;;;;;;;6.38;5.78;;;21.50;99.90;;;;;;5051613;28;20045;-69
2021/06/28 07:57:19;;;;;;;7.82;5.93;;;21.40;99.90;;;;;;5037868;28;20119;-68
2021/06/28 07:59:44;;;;;;;8.60;7.63;;;21.50;99.90;;;;;;5041165;28;20673;-69
2021/06/28 08:02:10;;;;;;;14.57;10.30;;;21.60;99.90;;;;;;5032004;28;20048;-67
2021/06/28 08:04:35;;;;;;;7.72;6.63;;;21.50;99.90;;;;;;5031635;28;20053;-67
2021/06/28 08:07:01;;;;;;;8.40;7.35;;;21.50;99.90;;;;;;5031512;28;20033;-67
2021/06/28 08:09:27;;;;;;;8.52;6.25;;;21.40;99.90;;;;;;5030959;28;20691;-67
2021/06/28 08:11:56;;;;;;;7.32;5.53;;;21.30;99.90;;;;;;5030293;28;20505;-68
2021/06/28 08:14:22;;;;;;;7.72;5.80;;;21.30;99.90;;;;;;5031469;28;20096;-68
2021/06/28 08:16:47;;;;;;;6.90;6.18;;;21.30;99.90;;;;;;5039305;28;20465;-68
2021/06/28 08:19:13;;;;;;;6.85;6.05;;;21.20;99.90;;;;;;5030547;28;20060;-67
2021/06/28 08:21:39;;;;;;;11.57;7.35;;;21.10;99.90;;;;;;5030213;28;20072;-69
2021/06/28 08:24:07;;;;;;;12.77;11.43;;;20.80;99.90;;;;;;5029600;28;20041;-68
2021/06/28 08:26:33;;;;;;;12.93;10.52;;;20.50;99.90;;;;;;5031562;28;20041;-68
2021/06/28 08:29:03;;;;;;;7.57;6.78;;;20.40;99.90;;;;;;5041773;28;20048;-67
2021/06/28 08:31:30;;;;;;;7.68;6.68;;;20.40;99.90;;;;;;5054427;28;20036;-68
2021/06/28 08:33:56;;;;;;;7.82;6.60;;;20.40;99.90;;;;;;5059538;28;20041;-68
2021/06/28 08:36:21;;;;;;;;;;;20.40;99.90;;;;;;5070083;28;20044;-69
2021/06/28 08:38:47;;;;;;;7.15;5.93;;;20.50;99.90;;;;;;5069842;28;19916;-69
2021/06/28 08:41:17;;;;;;;8.25;6.80;;;20.50;99.90;;;;;;5065662;28;20044;-69
2021/06/28 08:43:45;;;;;;;6.50;5.80;;;20.50;99.90;;;;;;5064920;28;20055;-68
2021/06/28 08:46:12;;;;;;;8.63;6.65;;;20.60;99.90;;;;;;5039764;28;20344;-69
2021/06/28 08:48:43;;;;;;;7.18;5.78;;;20.60;99.90;;;;;;5042345;28;20044;-69
2021/06/28 08:51:09;;;;;;;8.13;6.20;;;20.60;99.90;;;;;;5043399;28;20032;-69
2021/06/28 08:53:35;;;;;;;8.52;6.85;;;20.60;99.90;;;;;;5067090;28;20699;-69
2021/06/28 08:56:10;;;;;;;;;;;20.50;99.90;;;;;;5058919;28;20067;-69
2021/06/28 08:58:38;;;;;;;8.68;6.15;;;20.40;99.90;;;;;;5055576;28;19924;-69
2021/06/28 09:01:05;;;;;;;7.82;6.10;;;20.50;99.90;;;;;;5058665;28;20041;-70
2021/06/28 09:03:31;;;;;;;7.40;6.50;;;20.60;99.90;;;;;;5048712;28;20029;-69
2021/06/28 09:06:07;;;;;;;;;;;20.60;99.90;;;;;;5045181;28;20056;-70
2021/06/28 09:08:37;;;;;;;8.40;6.93;;;20.60;99.90;;;;;;5048672;28;19928;-69
2021/06/28 09:11:04;;;;;;;7.72;6.97;;;20.70;99.90;;;;;;5050123;28;20156;-69
2021/06/28 09:13:43;;;;;;;8.73;7.30;;;20.80;99.90;;;;;;5049648;28;20040;-70
2021/06/28 09:16:25;;;;;;;9.35;7.57;;;20.80;99.90;;;;;;5048234;28;20037;-69
2021/06/28 09:18:57;;;;;;;8.88;7.35;;;20.80;99.90;;;;;;5049364;28;20093;-71
2021/06/28 09:21:40;;;;;;;9.45;6.93;;;20.80;99.90;;;;;;5036323;28;20055;-70
2021/06/28 09:24:21;;;;;;;10.60;8.90;;;20.90;99.90;;;;;;5039746;28;20493;-69
2021/06/28 09:26:47;;;;;;;8.57;7.43;;;20.80;99.90;;;;;;5037893;28;20177;-69
2021/06/28 09:29:13;;;;;;;;;;;20.80;99.90;;;;;;5037602;28;20139;-70
2021/06/28 09:31:43;;;;;;;8.57;6.68;;;20.80;99.90;;;;;;5036716;28;19988;-69
2021/06/28 09:34:15;;;;;;;7.65;6.63;;;20.80;99.90;;;;;;5039261;28;20037;-69
2021/06/28 09:36:47;;;;;;;7.00;6.30;;;20.70;99.90;;;;;;5040905;28;20045;-69
2021/06/28 09:39:24;;;;;;;7.22;6.20;;;20.70;99.90;;;;;;5029698;28;20080;-69
2021/06/28 09:41:57;;;;;;;10.20;6.68;;;20.70;99.90;;;;;;5029260;28;20037;-70
2021/06/28 09:44:25;;;;;;;8.88;7.40;;;20.60;99.90;;;;;;5029311;28;20081;-69
2021/06/28 09:47:14;;;;;;;9.25;7.40;;;20.60;99.90;;;;;;5042994;28;20519;-69
2021/06/28 09:50:02;;;;;;;8.50;7.20;;;20.60;99.90;;;;;;5048836;28;20055;-69
2021/06/28 09:52:40;;;;;;;9.32;6.70;;;20.60;99.90;;;;;;5037713;28;20127;-69
2021/06/28 09:55:33;;;;;;;6.53;5.82;;;20.60;99.90;;;;;;5049085;28;20049;-69
2021/06/28 09:58:14;;;;;;;7.13;6.43;;;20.70;99.90;;;;;;5068333;28;20508;-69
2021/06/28 10:00:42;;;;;;;8.80;6.07;;;20.60;99.90;;;;;;5049155;28;20065;-69
2021/06/28 10:03:32;;;;;;;7.55;5.68;;;20.50;99.90;;;;;;5047564;28;20671;-69
2021/06/28 10:06:07;;;;;;;7.47;6.05;;;20.50;99.90;;;;;;5048707;28;20049;-71
2021/06/28 10:08:35;;;;;;;12.00;8.25;;;20.60;99.90;;;;;;5048949;28;20684;-69
2021/06/28 10:11:27;;;;;;;9.48;7.28;;;20.60;99.90;;;;;;5048080;28;20464;-70
2021/06/28 10:13:57;;;;;;;7.75;6.63;;;20.70;99.90;;;;;;5044131;28;20508;-69
2021/06/28 10:16:26;;;;;;;8.40;6.22;;;20.80;99.90;;;;;;5047778;28;20040;-69
2021/06/28 10:18:53;;;;;;;6.82;6.00;;;20.80;99.90;;;;;;5048370;28;20049;-69
2021/06/28 10:21:19;;;;;;;7.82;6.43;;;20.90;99.90;;;;;;5048650;28;20048;-66
2021/06/28 10:23:45;;;;;;;14.25;6.13;;;20.90;99.90;;;;;;5048579;28;20045;-70
2021/06/28 10:26:12;;;;;;;9.75;5.82;;;20.90;99.90;;;;;;5048051;28;20115;-70
2021/06/28 10:28:38;;;;;;;7.10;5.88;;;21.00;99.90;;;;;;5037630;28;20088;-70
2021/06/28 10:31:05;;;;;;;10.00;6.40;;;21.10;99.90;;;;;;5045012;28;20423;-67
2021/06/28 10:33:32;;;;;;;8.50;6.15;;;21.10;99.90;;;;;;5058544;28;20072;-69
2021/06/28 10:36:13;;;;;;;6.95;6.25;;;21.20;99.90;;;;;;5048294;28;20037;-69
2021/06/28 10:38:50;;;;;;;6.97;5.97;;;21.30;99.90;;;;;;5048013;28;20041;-70
2021/06/28 10:41:39;;;;;;;7.03;5.82;;;21.30;99.90;;;;;;5048081;28;20122;-70
2021/06/28 10:44:09;;;;;;;8.57;6.10;;;21.40;99.90;;;;;;5047320;28;20053;-69
2021/06/28 10:46:37;;;;;;;6.82;6.13;;;21.60;99.90;;;;;;5048116;28;20037;-69
2021/06/28 10:49:04;;;;;;;9.18;7.10;;;21.80;99.90;;;;;;5047968;28;20049;-69
2021/06/28 10:51:50;;;;;;;7.50;6.25;;;21.90;99.90;;;;;;5060856;28;20068;-69
2021/06/28 10:54:18;;;;;;;7.72;5.88;;;21.90;99.90;;;;;;5068121;28;20052;-68
2021/06/28 10:56:46;;;;;;;8.23;6.97;;;22.00;99.90;;;;;;5039581;28;20101;-70
2021/06/28 10:59:15;;;;;;;9.25;5.63;;;22.00;99.90;;;;;;5052922;28;20037;-69
2021/06/28 11:01:41;;;;;;;6.53;4.93;;;22.00;99.90;;;;;;5040313;28;20040;-70
2021/06/28 11:04:24;;;;;;;9.32;6.00;;;22.00;99.80;;;;;;5038187;28;20041;-71
2021/06/28 11:06:59;;;;;;;6.65;5.75;;;22.00;99.90;;;;;;5036951;28;20183;-69
2021/06/28 11:09:51;;;;;;;6.75;5.75;;;22.00;99.80;;;;;;5039010;28;20059;-69
2021/06/28 11:12:24;;;;;;;6.68;5.72;;;22.00;99.90;;;;;;5037506;28;20033;-71
2021/06/28 11:14:53;;;;;;;8.32;5.93;;;22.00;99.90;;;;;;5047891;28;20037;-70
2021/06/28 11:17:24;;;;;;;11.20;5.05;;;22.00;99.70;;;;;;5029077;28;20073;-69
2021/06/28 11:19:58;;;;;;;7.50;5.22;;;22.00;99.00;;;;;;5028229;28;20052;-70
2021/06/28 11:22:33;;;;;;;9.88;5.90;;;22.00;99.80;;;;;;5027879;28;20375;-71
2021/06/28 11:25:08;;;;;;;6.72;5.68;;;22.00;99.00;;;;;;5028746;28;20041;-69
2021/06/28 11:27:38;;;;;;;10.52;5.78;;;22.00;99.60;;;;;;5028532;28;20038;-68
2021/06/28 11:30:15;;;;;;;7.70;6.07;;;22.10;99.20;;;;;;5031664;28;20509;-71
2021/06/28 11:33:06;;;;;;;11.93;9.70;;;22.10;99.70;;;;;;5044435;28;20055;-70
2021/06/28 11:35:36;;;;;;;9.88;6.05;;;22.20;99.90;;;;;;5028157;28;20041;-70
2021/06/28 11:38:26;;;;;;;5.95;4.85;;;22.10;99.90;;;;;;5027153;28;20426;-70
2021/06/28 11:40:57;;;;;;;6.78;5.72;;;22.10;99.90;;;;;;5043752;28;20041;-68
2021/06/28 11:43:47;;;;;;;8.40;7.20;;;22.10;99.40;;;;;;5027255;28;20048;-70
2021/06/28 11:46:18;;;;;;;9.00;6.00;;;22.20;99.20;;;;;;5027009;28;20124;-69
2021/06/28 11:48:49;;;;;;;6.43;5.35;;;22.20;99.90;;;;;;5027661;28;20494;-70
2021/06/28 11:51:20;;;;;;;9.98;5.45;;;22.20;99.90;;;;;;5027092;28;20034;-70
2021/06/28 11:54:04;;;;;;;5.40;4.90;;;22.30;99.40;;;;;;5028078;28;20038;-69
2021/06/28 11:56:29;;;;;;;7.78;4.95;;;22.40;99.90;;;;;;5034895;28;20119;-69
2021/06/28 11:59:05;;;;;;;6.22;4.88;;;22.40;99.90;;;;;;5038639;28;20136;-70
2021/06/28 12:01:34;;;;;;;7.10;5.75;;;22.40;99.90;;;;;;5033644;28;20041;-70
2021/06/28 12:04:02;;;;;;;5.72;5.13;;;22.50;98.60;;;;;;5027151;28;20440;-69
2021/06/28 12:06:30;;;;;;;6.97;5.72;;;22.70;99.80;;;;;;5027342;28;20044;-71
2021/06/28 12:09:29;;;;;;;8.60;5.30;;;22.70;98.80;;;;;;5027726;28;20049;-70
2021/06/28 12:12:08;;;;;;;6.57;5.75;;;22.70;98.80;;;;;;5018833;28;20046;-68
2021/06/28 12:14:34;;;;;;;10.65;5.50;;;22.80;98.00;;;;;;5028848;28;20060;-69
2021/06/28 12:17:07;;;;;;;6.22;5.60;;;22.80;99.00;;;;;;5030024;28;20037;-72
2021/06/28 12:19:33;;;;;;;6.03;4.95;;;22.90;99.00;;;;;;5030273;28;20054;-71
2021/06/28 12:22:17;;;;;;;6.63;5.13;;;22.90;99.90;;;;;;5031179;28;20124;-70
2021/06/28 12:24:44;;;;;;;7.93;5.38;;;22.80;99.70;;;;;;5029436;28;20069;-70
2021/06/28 12:27:18;;;;;;;6.22;5.53;;;22.90;99.60;;;;;;5030716;28;20037;-69
2021/06/28 12:29:45;;;;;;;6.93;5.93;;;23.10;99.30;;;;;;5042525;28;20099;-69
2021/06/28 12:32:15;;;;;;;10.90;6.38;;;23.50;98.70;;;;;;5047837;28;20040;-67
2021/06/28 12:34:46;;;;;;;7.88;6.68;;;23.60;98.10;;;;;;5034120;28;20041;-69
2021/06/28 12:37:19;;;;;;;6.93;6.22;;;23.70;97.70;;;;;;5038766;28;20041;-69
2021/06/28 12:39:45;;;;;;;6.45;5.85;;;23.80;98.40;;;;;;5030673;28;20528;-69
2021/06/28 12:42:19;;;;;;;13.15;5.68;;;24.00;97.80;;;;;;5030610;28;20064;-69
2021/06/28 12:44:46;;;;;;;8.20;6.07;;;24.10;96.90;;;;;;5030809;28;20136;-69
2021/06/28 12:47:15;;;;;;;8.70;6.00;;;24.20;96.30;;;;;;5029817;28;20864;-69
2021/06/28 12:49:41;;;;;;;6.15;5.55;;;24.30;96.70;;;;;;5031784;28;20045;-70
2021/06/28 12:52:42;;;;;;;8.20;6.10;;;24.40;96.20;;;;;;5030789;28;20045;-70
2021/06/28 12:55:18;;;;;;;6.18;5.53;;;24.40;97.60;;;;;;4969480;28;20201;-69
2021/06/28 12:57:45;;;;;;;;;;;24.60;97.00;;;;;;5023834;28;20072;-68
2021/06/28 13:00:23;;;;;;;6.13;5.40;;;24.70;96.30;;;;;;5042800;28;19917;-71
2021/06/28 13:03:13;;;;;;;7.15;5.35;;;24.80;95.60;;;;;;5030090;28;20048;-68
2021/06/28 13:05:50;;;;;;;6.68;4.90;;;24.90;95.40;;;;;;5025531;28;20532;-70